sensor_id;sensor_type;location;lat;lon;timestamp;pressure;altitude;pressure_sealevel;temperature;humidity
14800;BME280;7491;57.750;11.970;2023-11-19T00:00:13;77446.13;;;-142.11;100.00
14800;BME280;7491;57.750;11.970;2023-11-19T00:02:40;77478.75;;;-142.11;100.00
14800;BME280;7491;57.750;11.970;2023-11-19T00:05:08;77452.25;;;-142.11;100.00
14800;BME280;7491;57.750;11.970;2023-11-19T00:07:36;77448.16;;;-142.11;100.00
14800;BME280;7491;57.750;11.970;2023-11-19T00:10:08;77444.09;;;-142.11;100.00
14800;BME280;7491;57.750;11.970;2023-11-19T00:12:37;77442.03;;;-142.11;100.00
14800;BME280;7491;57.750;11.970;2023-11-19T00:15:06;77429.81;;;-142.11;100.00
14800;BME280;7491;57.750;11.970;2023-11-19T00:17:36;77429.81;;;-142.11;100.00
14800;BME280;7491;57.750;11.970;2023-11-19T00:20:05;77419.63;;;-142.11;100.00
14800;BME280;7491;57.750;11.970;2023-11-19T00:22:33;77419.63;;;-142.11;100.00
14800;BME280;7491;57.750;11.970;2023-11-19T00:25:00;77425.72;;;-142.11;100.00
14800;BME280;7491;57.750;11.970;2023-11-19T00:27:28;77403.31;;;-142.11;100.00
14800;BME280;7491;57.750;11.970;2023-11-19T00:29:55;77391.06;;;-142.11;100.00
14800;BME280;7491;57.750;11.970;2023-11-19T00:32:22;77391.06;;;-142.11;100.00
14800;BME280;7491;57.750;11.970;2023-11-19T00:34:49;77380.88;;;-142.11;100.00
14800;BME280;7491;57.750;11.970;2023-11-19T00:37:15;77378.84;;;-142.11;100.00
14800;BME280;7491;57.750;11.970;2023-11-19T00:39:42;77368.63;;;-142.11;100.00
14800;BME280;7491;57.750;11.970;2023-11-19T00:42:11;77378.84;;;-142.11;100.00
14800;BME280;7491;57.750;11.970;2023-11-19T00:44:39;77380.88;;;-142.11;100.00
14800;BME280;7491;57.750;11.970;2023-11-19T00:47:06;77362.50;;;-142.11;100.00
14800;BME280;7491;57.750;11.970;2023-11-19T00:49:33;77356.41;;;-142.11;100.00
14800;BME280;7491;57.750;11.970;2023-11-19T00:52:00;77354.34;;;-142.11;100.00
14800;BME280;7491;57.750;11.970;2023-11-19T00:54:27;77346.19;;;-142.11;100.00
14800;BME280;7491;57.750;11.970;2023-11-19T00:56:54;77333.97;;;-142.11;100.00
14800;BME280;7491;57.750;11.970;2023-11-19T00:59:22;77346.19;;;-142.11;100.00
14800;BME280;7491;57.750;11.970;2023-11-19T01:01:50;77331.94;;;-142.11;100.00
14800;BME280;7491;57.750;11.970;2023-11-19T01:04:17;77333.97;;;-142.11;100.00
14800;BME280;7491;57.750;11.970;2023-11-19T01:06:44;77329.88;;;-142.11;100.00
14800;BME280;7491;57.750;11.970;2023-11-19T01:09:11;77323.78;;;-142.11;100.00
14800;BME280;7491;57.750;11.970;2023-11-19T01:11:38;77329.88;;;-142.11;100.00
14800;BME280;7491;57.750;11.970;2023-11-19T01:14:04;77323.78;;;-142.11;100.00
14800;BME280;7491;57.750;11.970;2023-11-19T01:16:31;77315.63;;;-142.11;100.00
14800;BME280;7491;57.750;11.970;2023-11-19T01:18:59;77307.47;;;-142.11;100.00
14800;BME280;7491;57.750;11.970;2023-11-19T01:21:29;77301.34;;;-142.11;100.00
14800;BME280;7491;57.750;11.970;2023-11-19T01:23:57;77287.06;;;-142.11;100.00
14800;BME280;7491;57.750;11.970;2023-11-19T01:26:23;77278.91;;;-142.11;100.00
14800;BME280;7491;57.750;11.970;2023-11-19T01:28:50;77262.59;;;-142.11;100.00
14800;BME280;7491;57.750;11.970;2023-11-19T01:31:18;77264.63;;;-142.11;100.00
14800;BME280;7491;57.750;11.970;2023-11-19T01:33:45;77254.44;;;-142.11;100.00
14800;BME280;7491;57.750;11.970;2023-11-19T01:36:14;77229.97;;;-142.11;100.00
14800;BME280;7491;57.750;11.970;2023-11-19T01:38:41;77236.09;;;-142.11;100.00
14800;BME280;7491;57.750;11.970;2023-11-19T01:41:08;77236.09;;;-142.11;100.00
14800;BME280;7491;57.750;11.970;2023-11-19T01:43:36;77225.88;;;-142.11;100.00
14800;BME280;7491;57.750;11.970;2023-11-19T01:46:05;77234.03;;;-142.11;100.00
14800;BME280;7491;57.750;11.970;2023-11-19T01:48:34;77211.63;;;-142.11;100.00
14800;BME280;7491;57.750;11.970;2023-11-19T01:51:03;77215.69;;;-142.11;100.00
14800;BME280;7491;57.750;11.970;2023-11-19T01:53:32;77201.41;;;-142.11;100.00
14800;BME280;7491;57.750;11.970;2023-11-19T01:56:00;77193.25;;;-142.11;100.00
14800;BME280;7491;57.750;11.970;2023-11-19T01:58:27;77193.25;;;-142.11;100.00
14800;BME280;7491;57.750;11.970;2023-11-19T02:00:55;77183.06;;;-142.11;100.00
14800;BME280;7491;57.750;11.970;2023-11-19T02:03:22;77183.06;;;-142.11;100.00
14800;BME280;7491;57.750;11.970;2023-11-19T02:05:51;77185.09;;;-142.11;100.00
14800;BME280;7491;57.750;11.970;2023-11-19T02:08:18;77158.59;;;-142.11;100.00
14800;BME280;7491;57.750;11.970;2023-11-19T02:10:47;77148.41;;;-142.11;100.00
14800;BME280;7491;57.750;11.970;2023-11-19T02:13:13;77148.41;;;-142.11;100.00
14800;BME280;7491;57.750;11.970;2023-11-19T02:15:41;77138.22;;;-142.11;100.00
14800;BME280;7491;57.750;11.970;2023-11-19T02:18:22;77138.22;;;-142.11;100.00
14800;BME280;7491;57.750;11.970;2023-11-19T02:20:49;77121.91;;;-142.11;100.00
14800;BME280;7491;57.750;11.970;2023-11-19T02:23:17;77117.81;;;-142.11;100.00
14800;BME280;7491;57.750;11.970;2023-11-19T02:25:56;77111.69;;;-142.11;100.00
14800;BME280;7491;57.750;11.970;2023-11-19T02:28:27;77105.59;;;-142.11;100.00
14800;BME280;7491;57.750;11.970;2023-11-19T02:30:54;77093.34;;;-142.11;100.00
14800;BME280;7491;57.750;11.970;2023-11-19T02:33:20;77081.13;;;-142.11;100.00
14800;BME280;7491;57.750;11.970;2023-11-19T02:35:48;77079.06;;;-142.11;100.00
14800;BME280;7491;57.750;11.970;2023-11-19T02:38:15;77064.81;;;-142.11;100.00
14800;BME280;7491;57.750;11.970;2023-11-19T02:40:41;77068.88;;;-142.11;100.00
14800;BME280;7491;57.750;11.970;2023-11-19T02:43:08;77064.81;;;-142.11;100.00
14800;BME280;7491;57.750;11.970;2023-11-19T02:45:36;77064.81;;;-142.11;100.00
14800;BME280;7491;57.750;11.970;2023-11-19T02:48:03;77066.84;;;-142.11;100.00
14800;BME280;7491;57.750;11.970;2023-11-19T02:50:31;77060.72;;;-142.11;100.00
14800;BME280;7491;57.750;11.970;2023-11-19T02:52:58;77046.44;;;-142.11;100.00
14800;BME280;7491;57.750;11.970;2023-11-19T02:55:26;77040.34;;;-142.11;100.00
14800;BME280;7491;57.750;11.970;2023-11-19T02:57:56;77044.41;;;-142.11;100.00
14800;BME280;7491;57.750;11.970;2023-11-19T03:00:24;77038.28;;;-142.11;100.00
14800;BME280;7491;57.750;11.970;2023-11-19T03:02:59;77044.41;;;-142.11;100.00
14800;BME280;7491;57.750;11.970;2023-11-19T03:05:35;77048.50;;;-142.11;100.00
14800;BME280;7491;57.750;11.970;2023-11-19T03:08:02;77052.56;;;-142.11;100.00
14800;BME280;7491;57.750;11.970;2023-11-19T03:10:29;77058.69;;;-142.11;100.00
14800;BME280;7491;57.750;11.970;2023-11-19T03:12:55;77040.34;;;-142.11;100.00
14800;BME280;7491;57.750;11.970;2023-11-19T03:15:22;77038.28;;;-142.11;100.00
14800;BME280;7491;57.750;11.970;2023-11-19T03:17:49;77040.34;;;-142.11;100.00
14800;BME280;7491;57.750;11.970;2023-11-19T03:20:17;77038.28;;;-142.11;100.00
14800;BME280;7491;57.750;11.970;2023-11-19T03:22:44;77005.66;;;-142.11;100.00
14800;BME280;7491;57.750;11.970;2023-11-19T03:25:11;77011.78;;;-142.11;100.00
14800;BME280;7491;57.750;11.970;2023-11-19T03:27:38;77017.91;;;-142.11;100.00
14800;BME280;7491;57.750;11.970;2023-11-19T03:30:08;77011.78;;;-142.11;100.00
14800;BME280;7491;57.750;11.970;2023-11-19T03:32:35;77005.66;;;-142.11;100.00
14800;BME280;7491;57.750;11.970;2023-11-19T03:35:02;77005.66;;;-142.11;100.00
14800;BME280;7491;57.750;11.970;2023-11-19T03:37:31;77001.59;;;-142.11;100.00
14800;BME280;7491;57.750;11.970;2023-11-19T03:39:58;76979.16;;;-142.11;100.00
14800;BME280;7491;57.750;11.970;2023-11-19T03:42:26;76985.28;;;-142.11;100.00
14800;BME280;7491;57.750;11.970;2023-11-19T03:44:53;76973.03;;;-142.11;100.00
14800;BME280;7491;57.750;11.970;2023-11-19T03:47:20;76971.00;;;-142.11;100.00
14800;BME280;7491;57.750;11.970;2023-11-19T03:49:48;76962.84;;;-142.11;100.00
14800;BME280;7491;57.750;11.970;2023-11-19T03:52:15;76954.69;;;-142.11;100.00
14800;BME280;7491;57.750;11.970;2023-11-19T03:54:43;76954.69;;;-142.11;100.00
14800;BME280;7491;57.750;11.970;2023-11-19T03:57:11;76946.53;;;-142.11;100.00
14800;BME280;7491;57.750;11.970;2023-11-19T03:59:37;76948.56;;;-142.11;100.00
14800;BME280;7491;57.750;11.970;2023-11-19T04:02:04;76938.38;;;-142.11;100.00
14800;BME280;7491;57.750;11.970;2023-11-19T04:04:32;76942.47;;;-142.11;100.00
14800;BME280;7491;57.750;11.970;2023-11-19T04:06:59;76938.38;;;-142.11;100.00
14800;BME280;7491;57.750;11.970;2023-11-19T04:09:26;76932.28;;;-142.11;100.00
14800;BME280;7491;57.750;11.970;2023-11-19T04:11:54;76905.75;;;-142.11;100.00
14800;BME280;7491;57.750;11.970;2023-11-19T04:14:21;76903.72;;;-142.11;100.00
14800;BME280;7491;57.750;11.970;2023-11-19T04:16:48;76901.69;;;-142.11;100.00
14800;BME280;7491;57.750;11.970;2023-11-19T04:19:14;76903.72;;;-142.11;100.00
14800;BME280;7491;57.750;11.970;2023-11-19T04:21:41;76907.81;;;-142.11;100.00
14800;BME280;7491;57.750;11.970;2023-11-19T04:24:08;76887.41;;;-142.11;100.00
14800;BME280;7491;57.750;11.970;2023-11-19T04:26:40;76899.66;;;-142.11;100.00
14800;BME280;7491;57.750;11.970;2023-11-19T04:29:08;76895.56;;;-142.11;100.00
14800;BME280;7491;57.750;11.970;2023-11-19T04:31:36;76885.38;;;-142.11;100.00
14800;BME280;7491;57.750;11.970;2023-11-19T04:34:03;76873.13;;;-142.11;100.00
14800;BME280;7491;57.750;11.970;2023-11-19T04:36:30;76867.03;;;-142.11;100.00
14800;BME280;7491;57.750;11.970;2023-11-19T04:38:56;76873.13;;;-142.11;100.00
14800;BME280;7491;57.750;11.970;2023-11-19T04:41:24;76873.13;;;-142.11;100.00
14800;BME280;7491;57.750;11.970;2023-11-19T04:43:52;76883.34;;;-142.11;100.00
14800;BME280;7491;57.750;11.970;2023-11-19T04:46:20;76848.66;;;-142.11;100.00
14800;BME280;7491;57.750;11.970;2023-11-19T04:48:48;76836.44;;;-142.11;100.00
14800;BME280;7491;57.750;11.970;2023-11-19T04:51:15;76854.78;;;-142.11;100.00
14800;BME280;7491;57.750;11.970;2023-11-19T04:53:42;76852.75;;;-142.11;100.00
14800;BME280;7491;57.750;11.970;2023-11-19T04:56:09;76856.81;;;-142.11;100.00
14800;BME280;7491;57.750;11.970;2023-11-19T04:58:36;76846.63;;;-142.11;100.00
14800;BME280;7491;57.750;11.970;2023-11-19T05:01:03;76834.41;;;-142.11;100.00
14800;BME280;7491;57.750;11.970;2023-11-19T05:03:32;76830.31;;;-142.11;100.00
14800;BME280;7491;57.750;11.970;2023-11-19T05:05:58;76822.16;;;-142.11;100.00
14800;BME280;7491;57.750;11.970;2023-11-19T05:08:25;76822.16;;;-142.11;100.00
14800;BME280;7491;57.750;11.970;2023-11-19T05:10:52;76840.53;;;-142.11;100.00
14800;BME280;7491;57.750;11.970;2023-11-19T05:13:19;76818.09;;;-142.11;100.00
14800;BME280;7491;57.750;11.970;2023-11-19T05:15:45;76807.91;;;-142.11;100.00
14800;BME280;7491;57.750;11.970;2023-11-19T05:18:12;76801.78;;;-142.11;100.00
14800;BME280;7491;57.750;11.970;2023-11-19T05:20:40;76789.53;;;-142.11;100.00
14800;BME280;7491;57.750;11.970;2023-11-19T05:23:07;76791.59;;;-142.11;100.00
14800;BME280;7491;57.750;11.970;2023-11-19T05:25:34;76795.66;;;-142.11;100.00
14800;BME280;7491;57.750;11.970;2023-11-19T05:28:00;76793.63;;;-142.11;100.00
14800;BME280;7491;57.750;11.970;2023-11-19T05:30:27;76779.34;;;-142.11;100.00
14800;BME280;7491;57.750;11.970;2023-11-19T05:32:54;76785.47;;;-142.11;100.00
14800;BME280;7491;57.750;11.970;2023-11-19T05:35:21;76791.59;;;-142.11;100.00
14800;BME280;7491;57.750;11.970;2023-11-19T05:37:49;76783.44;;;-142.11;100.00
14800;BME280;7491;57.750;11.970;2023-11-19T05:40:15;76785.47;;;-142.11;100.00
14800;BME280;7491;57.750;11.970;2023-11-19T05:42:42;76779.34;;;-142.11;100.00
14800;BME280;7491;57.750;11.970;2023-11-19T05:45:11;76771.19;;;-142.11;100.00
14800;BME280;7491;57.750;11.970;2023-11-19T05:47:38;76767.13;;;-142.11;100.00
14800;BME280;7491;57.750;11.970;2023-11-19T05:50:05;76777.31;;;-142.11;100.00
14800;BME280;7491;57.750;11.970;2023-11-19T05:52:33;76763.03;;;-142.11;100.00
14800;BME280;7491;57.750;11.970;2023-11-19T05:55:02;76738.56;;;-142.11;100.00
14800;BME280;7491;57.750;11.970;2023-11-19T05:57:29;76750.81;;;-142.11;100.00
14800;BME280;7491;57.750;11.970;2023-11-19T05:59:56;76748.75;;;-142.11;100.00
14800;BME280;7491;57.750;11.970;2023-11-19T06:02:24;76756.91;;;-142.11;100.00
14800;BME280;7491;57.750;11.970;2023-11-19T06:04:52;76730.41;;;-142.11;100.00
14800;BME280;7491;57.750;11.970;2023-11-19T06:07:19;76722.25;;;-142.11;100.00
14800;BME280;7491;57.750;11.970;2023-11-19T06:09:45;76742.66;;;-142.11;100.00
14800;BME280;7491;57.750;11.970;2023-11-19T06:12:14;76718.19;;;-142.11;100.00
14800;BME280;7491;57.750;11.970;2023-11-19T06:14:40;76724.31;;;-142.11;100.00
14800;BME280;7491;57.750;11.970;2023-11-19T06:17:07;76726.34;;;-142.11;100.00
14800;BME280;7491;57.750;11.970;2023-11-19T06:19:36;76697.78;;;-142.11;100.00
14800;BME280;7491;57.750;11.970;2023-11-19T06:22:03;76708.00;;;-142.11;100.00
14800;BME280;7491;57.750;11.970;2023-11-19T06:24:30;76710.03;;;-142.11;100.00
14800;BME280;7491;57.750;11.970;2023-11-19T06:26:56;76722.25;;;-142.11;100.00
14800;BME280;7491;57.750;11.970;2023-11-19T06:29:25;76703.91;;;-142.11;100.00
14800;BME280;7491;57.750;11.970;2023-11-19T06:31:52;76724.31;;;-142.11;100.00
14800;BME280;7491;57.750;11.970;2023-11-19T06:34:18;76710.03;;;-142.11;100.00
14800;BME280;7491;57.750;11.970;2023-11-19T06:36:45;76710.03;;;-142.11;100.00
14800;BME280;7491;57.750;11.970;2023-11-19T06:39:13;76689.63;;;-142.11;100.00
14800;BME280;7491;57.750;11.970;2023-11-19T06:41:44;76703.91;;;-142.11;100.00
14800;BME280;7491;57.750;11.970;2023-11-19T06:44:11;76681.50;;;-142.11;100.00
14800;BME280;7491;57.750;11.970;2023-11-19T06:46:40;76701.88;;;-142.11;100.00
14800;BME280;7491;57.750;11.970;2023-11-19T06:49:06;76677.41;;;-142.11;100.00
14800;BME280;7491;57.750;11.970;2023-11-19T06:51:33;76677.41;;;-142.11;100.00
14800;BME280;7491;57.750;11.970;2023-11-19T06:54:00;76673.31;;;-142.11;100.00
14800;BME280;7491;57.750;11.970;2023-11-19T06:56:27;76675.38;;;-142.11;100.00
14800;BME280;7491;57.750;11.970;2023-11-19T06:58:54;76665.19;;;-142.11;100.00
14800;BME280;7491;57.750;11.970;2023-11-19T07:01:21;76669.25;;;-142.11;100.00
14800;BME280;7491;57.750;11.970;2023-11-19T07:03:49;76669.25;;;-142.11;100.00
14800;BME280;7491;57.750;11.970;2023-11-19T07:06:16;76654.97;;;-142.11;100.00
14800;BME280;7491;57.750;11.970;2023-11-19T07:08:44;76661.09;;;-142.11;100.00
14800;BME280;7491;57.750;11.970;2023-11-19T07:11:11;76642.75;;;-142.11;100.00
14800;BME280;7491;57.750;11.970;2023-11-19T07:13:39;76624.41;;;-142.11;100.00
14800;BME280;7491;57.750;11.970;2023-11-19T07:16:07;76624.41;;;-142.11;100.00
14800;BME280;7491;57.750;11.970;2023-11-19T07:18:35;76624.41;;;-142.11;100.00
14800;BME280;7491;57.750;11.970;2023-11-19T07:21:04;76616.25;;;-142.11;100.00
14800;BME280;7491;57.750;11.970;2023-11-19T07:23:31;76634.59;;;-142.11;100.00
14800;BME280;7491;57.750;11.970;2023-11-19T07:25:58;76634.59;;;-142.11;100.00
14800;BME280;7491;57.750;11.970;2023-11-19T07:28:25;76630.50;;;-142.11;100.00
14800;BME280;7491;57.750;11.970;2023-11-19T07:30:54;76612.16;;;-142.11;100.00
14800;BME280;7491;57.750;11.970;2023-11-19T07:33:21;76591.78;;;-142.11;100.00
14800;BME280;7491;57.750;11.970;2023-11-19T07:35:48;76612.16;;;-142.11;100.00
14800;BME280;7491;57.750;11.970;2023-11-19T07:38:16;76589.75;;;-142.11;100.00
14800;BME280;7491;57.750;11.970;2023-11-19T07:40:43;76599.94;;;-142.11;100.00
14800;BME280;7491;57.750;11.970;2023-11-19T07:43:10;76567.31;;;-142.11;100.00
14800;BME280;7491;57.750;11.970;2023-11-19T07:45:36;76581.59;;;-142.11;100.00
14800;BME280;7491;57.750;11.970;2023-11-19T07:48:03;76581.59;;;-142.11;100.00
14800;BME280;7491;57.750;11.970;2023-11-19T07:50:31;76565.28;;;-142.11;100.00
14800;BME280;7491;57.750;11.970;2023-11-19T07:52:58;76569.34;;;-142.11;100.00
14800;BME280;7491;57.750;11.970;2023-11-19T07:55:27;76579.53;;;-142.11;100.00
14800;BME280;7491;57.750;11.970;2023-11-19T07:57:54;76567.31;;;-142.11;100.00
14800;BME280;7491;57.750;11.970;2023-11-19T08:00:21;76563.25;;;-142.11;100.00
14800;BME280;7491;57.750;11.970;2023-11-19T08:02:47;76544.88;;;-142.11;100.00
14800;BME280;7491;57.750;11.970;2023-11-19T08:05:14;76538.78;;;-142.11;100.00
14800;BME280;7491;57.750;11.970;2023-11-19T08:07:41;76530.63;;;-142.11;100.00
14800;BME280;7491;57.750;11.970;2023-11-19T08:10:07;76544.88;;;-142.11;100.00
14800;BME280;7491;57.750;11.970;2023-11-19T08:12:37;76542.84;;;-142.11;100.00
14800;BME280;7491;57.750;11.970;2023-11-19T08:15:05;76532.66;;;-142.11;100.00
14800;BME280;7491;57.750;11.970;2023-11-19T08:17:32;76516.34;;;-142.11;100.00
14800;BME280;7491;57.750;11.970;2023-11-19T08:19:59;76522.47;;;-142.11;100.00
14800;BME280;7491;57.750;11.970;2023-11-19T08:22:26;76522.47;;;-142.11;100.00
14800;BME280;7491;57.750;11.970;2023-11-19T08:24:53;76506.16;;;-142.11;100.00
14800;BME280;7491;57.750;11.970;2023-11-19T08:27:19;76530.63;;;-142.11;100.00
14800;BME280;7491;57.750;11.970;2023-11-19T08:29:53;76522.47;;;-142.11;100.00
14800;BME280;7491;57.750;11.970;2023-11-19T08:32:21;76493.91;;;-142.11;100.00
14800;BME280;7491;57.750;11.970;2023-11-19T08:34:47;76493.91;;;-142.11;100.00
14800;BME280;7491;57.750;11.970;2023-11-19T08:37:14;76502.06;;;-142.11;100.00
14800;BME280;7491;57.750;11.970;2023-11-19T08:39:43;76479.66;;;-142.11;100.00
14800;BME280;7491;57.750;11.970;2023-11-19T08:42:10;76473.53;;;-142.11;100.00
14800;BME280;7491;57.750;11.970;2023-11-19T08:44:36;76473.53;;;-142.11;100.00
14800;BME280;7491;57.750;11.970;2023-11-19T08:47:05;76477.63;;;-142.11;100.00
14800;BME280;7491;57.750;11.970;2023-11-19T08:49:31;76455.19;;;-142.11;100.00
14800;BME280;7491;57.750;11.970;2023-11-19T08:51:58;76453.16;;;-142.11;100.00
14800;BME280;7491;57.750;11.970;2023-11-19T08:54:25;76451.09;;;-142.11;100.00
14800;BME280;7491;57.750;11.970;2023-11-19T08:56:51;76467.41;;;-142.11;100.00
14800;BME280;7491;57.750;11.970;2023-11-19T08:59:18;76453.16;;;-142.11;100.00
14800;BME280;7491;57.750;11.970;2023-11-19T09:01:45;76432.75;;;-142.11;100.00
14800;BME280;7491;57.750;11.970;2023-11-19T09:04:13;76440.91;;;-142.11;100.00
14800;BME280;7491;57.750;11.970;2023-11-19T09:06:41;76436.84;;;-142.11;100.00
14800;BME280;7491;57.750;11.970;2023-11-19T09:09:08;76426.66;;;-142.11;100.00
14800;BME280;7491;57.750;11.970;2023-11-19T09:11:35;76412.38;;;-142.11;100.00
14800;BME280;7491;57.750;11.970;2023-11-19T09:14:02;76400.16;;;-142.11;100.00
14800;BME280;7491;57.750;11.970;2023-11-19T09:16:29;76420.53;;;-142.11;100.00
14800;BME280;7491;57.750;11.970;2023-11-19T09:18:56;76408.28;;;-142.11;100.00
14800;BME280;7491;57.750;11.970;2023-11-19T09:21:27;76408.28;;;-142.11;100.00
14800;BME280;7491;57.750;11.970;2023-11-19T09:23:54;76398.09;;;-142.11;100.00
14800;BME280;7491;57.750;11.970;2023-11-19T09:26:21;76404.22;;;-142.11;100.00
14800;BME280;7491;57.750;11.970;2023-11-19T09:28:48;76400.16;;;-142.11;100.00
14800;BME280;7491;57.750;11.970;2023-11-19T09:31:15;76383.84;;;-142.11;100.00
14800;BME280;7491;57.750;11.970;2023-11-19T09:33:49;76387.91;;;-142.11;100.00
14800;BME280;7491;57.750;11.970;2023-11-19T09:36:16;76375.69;;;-142.11;100.00
14800;BME280;7491;57.750;11.970;2023-11-19T09:38:46;76391.97;;;-142.11;100.00
14800;BME280;7491;57.750;11.970;2023-11-19T09:41:12;76381.78;;;-142.11;100.00
14800;BME280;7491;57.750;11.970;2023-11-19T09:43:40;76371.59;;;-142.11;100.00
14800;BME280;7491;57.750;11.970;2023-11-19T09:46:09;76367.53;;;-142.11;100.00
14800;BME280;7491;57.750;11.970;2023-11-19T09:48:37;76363.44;;;-142.11;100.00
14800;BME280;7491;57.750;11.970;2023-11-19T09:51:06;76349.19;;;-142.11;100.00
14800;BME280;7491;57.750;11.970;2023-11-19T09:53:33;76334.91;;;-142.11;100.00
14800;BME280;7491;57.750;11.970;2023-11-19T09:56:03;76320.63;;;-142.11;100.00
14800;BME280;7491;57.750;11.970;2023-11-19T09:58:31;76324.72;;;-142.11;100.00
14800;BME280;7491;57.750;11.970;2023-11-19T10:00:58;76308.41;;;-142.11;100.00
14800;BME280;7491;57.750;11.970;2023-11-19T10:03:26;76302.28;;;-142.11;100.00
14800;BME280;7491;57.750;11.970;2023-11-19T10:05:54;76306.38;;;-142.11;100.00
14800;BME280;7491;57.750;11.970;2023-11-19T10:08:21;76279.88;;;-142.11;100.00
14800;BME280;7491;57.750;11.970;2023-11-19T10:10:48;76290.06;;;-142.11;100.00
14800;BME280;7491;57.750;11.970;2023-11-19T10:13:18;76279.88;;;-142.11;100.00
14800;BME280;7491;57.750;11.970;2023-11-19T10:15:45;76288.03;;;-142.11;100.00
14800;BME280;7491;57.750;11.970;2023-11-19T10:18:14;76285.97;;;-142.11;100.00
14800;BME280;7491;57.750;11.970;2023-11-19T10:20:41;76290.06;;;-142.11;100.00
14800;BME280;7491;57.750;11.970;2023-11-19T10:23:08;76281.91;;;-142.11;100.00
14800;BME280;7491;57.750;11.970;2023-11-19T10:25:36;76288.03;;;-142.11;100.00
14800;BME280;7491;57.750;11.970;2023-11-19T10:28:03;76285.97;;;-142.11;100.00
14800;BME280;7491;57.750;11.970;2023-11-19T10:30:31;76263.56;;;-142.11;100.00
14800;BME280;7491;57.750;11.970;2023-11-19T10:33:03;76259.47;;;-142.11;100.00
14800;BME280;7491;57.750;11.970;2023-11-19T10:35:31;76251.31;;;-142.11;100.00
14800;BME280;7491;57.750;11.970;2023-11-19T10:37:59;76247.25;;;-142.11;100.00
14800;BME280;7491;57.750;11.970;2023-11-19T10:40:37;76265.59;;;-142.11;100.00
14800;BME280;7491;57.750;11.970;2023-11-19T10:43:05;76245.22;;;-142.11;100.00
14800;BME280;7491;57.750;11.970;2023-11-19T10:45:34;76247.25;;;-142.11;100.00
14800;BME280;7491;57.750;11.970;2023-11-19T10:48:02;76239.09;;;-142.11;100.00
14800;BME280;7491;57.750;11.970;2023-11-19T10:50:32;76237.06;;;-142.11;100.00
14800;BME280;7491;57.750;11.970;2023-11-19T10:52:59;76224.81;;;-142.11;100.00
14800;BME280;7491;57.750;11.970;2023-11-19T10:55:34;76206.47;;;-142.11;100.00
14800;BME280;7491;57.750;11.970;2023-11-19T10:58:02;76218.72;;;-142.11;100.00
14800;BME280;7491;57.750;11.970;2023-11-19T11:00:29;76196.28;;;-142.11;100.00
14800;BME280;7491;57.750;11.970;2023-11-19T11:03:02;76194.25;;;-142.11;100.00
14800;BME280;7491;57.750;11.970;2023-11-19T11:05:32;76204.44;;;-142.11;100.00
14800;BME280;7491;57.750;11.970;2023-11-19T11:08:00;76184.06;;;-142.11;100.00
14800;BME280;7491;57.750;11.970;2023-11-19T11:10:28;76208.50;;;-142.11;100.00
14800;BME280;7491;57.750;11.970;2023-11-19T11:12:59;76208.50;;;-142.11;100.00
14800;BME280;7491;57.750;11.970;2023-11-19T11:15:27;76192.22;;;-142.11;100.00
14800;BME280;7491;57.750;11.970;2023-11-19T11:17:59;76171.81;;;-142.11;100.00
14800;BME280;7491;57.750;11.970;2023-11-19T11:20:28;76184.06;;;-142.11;100.00
14800;BME280;7491;57.750;11.970;2023-11-19T11:23:19;76184.06;;;-142.11;100.00
14800;BME280;7491;57.750;11.970;2023-11-19T11:26:00;76179.97;;;-142.11;100.00
14800;BME280;7491;57.750;11.970;2023-11-19T11:28:37;76155.50;;;-142.11;100.00
14800;BME280;7491;57.750;11.970;2023-11-19T11:31:29;76143.28;;;-142.11;100.00
14800;BME280;7491;57.750;11.970;2023-11-19T11:34:25;76147.34;;;-142.11;100.00
14800;BME280;7491;57.750;11.970;2023-11-19T11:37:05;76155.50;;;-142.11;100.00
14800;BME280;7491;57.750;11.970;2023-11-19T11:39:36;76141.25;;;-142.11;100.00
14800;BME280;7491;57.750;11.970;2023-11-19T11:42:31;76145.31;;;-142.11;100.00
14800;BME280;7491;57.750;11.970;2023-11-19T11:44:58;76137.16;;;-142.11;100.00
14800;BME280;7491;57.750;11.970;2023-11-19T11:47:25;76137.16;;;-142.11;100.00
14800;BME280;7491;57.750;11.970;2023-11-19T11:49:52;76133.09;;;-142.11;100.00
14800;BME280;7491;57.750;11.970;2023-11-19T11:52:21;76110.66;;;-142.11;100.00
14800;BME280;7491;57.750;11.970;2023-11-19T11:54:47;76112.72;;;-142.11;100.00
14800;BME280;7491;57.750;11.970;2023-11-19T11:57:14;76116.78;;;-142.11;100.00
14800;BME280;7491;57.750;11.970;2023-11-19T11:59:48;76106.59;;;-142.11;100.00
14800;BME280;7491;57.750;11.970;2023-11-19T12:02:17;76096.41;;;-142.11;100.00
14800;BME280;7491;57.750;11.970;2023-11-19T12:04:47;76073.97;;;-142.11;100.00
14800;BME280;7491;57.750;11.970;2023-11-19T12:07:18;76073.97;;;-142.11;100.00
14800;BME280;7491;57.750;11.970;2023-11-19T12:09:52;76061.75;;;-142.11;100.00
14800;BME280;7491;57.750;11.970;2023-11-19T12:12:26;76082.13;;;-142.11;100.00
14800;BME280;7491;57.750;11.970;2023-11-19T12:15:01;76071.94;;;-142.11;100.00
14800;BME280;7491;57.750;11.970;2023-11-19T12:17:43;76071.94;;;-142.11;100.00
14800;BME280;7491;57.750;11.970;2023-11-19T12:20:15;76069.91;;;-142.11;100.00
14800;BME280;7491;57.750;11.970;2023-11-19T12:22:43;76057.66;;;-142.11;100.00
14800;BME280;7491;57.750;11.970;2023-11-19T12:25:13;76049.50;;;-142.11;100.00
14800;BME280;7491;57.750;11.970;2023-11-19T12:27:41;76039.31;;;-142.11;100.00
14800;BME280;7491;57.750;11.970;2023-11-19T12:30:08;76031.16;;;-142.11;100.00
14800;BME280;7491;57.750;11.970;2023-11-19T12:32:44;76033.22;;;-142.11;100.00
14800;BME280;7491;57.750;11.970;2023-11-19T12:35:14;76033.22;;;-142.11;100.00